RPV76 KSFO-KLAX
Flight info
| Callsign | RPV76 |
|---|---|
| Flight time | 0h 55m |
| Altitude | 31000 |
| Route | WESLA5 SUSEY EBAYE BURGL IRNMN2 |
| Aircraft | E170/M-SDE3GILORVW/S |
Departure
| Time | 2026-04-25 07:41 |
|---|---|
| Airport | San Francisco International Airport (KSFO) |
Arrival
| Time | 2026-04-25 08:36 |
|---|---|
| Airport | Los Angeles International Airport (KLAX) |
| Time | Latitude | Longitude | Altitude | Speed | Heading |
|---|---|---|---|---|---|
| 2026-04-25 07:16 | 37.61328 | -122.38560 | 20 ft | 0 kts | 48° |
| 2026-04-25 07:24 | 37.61326 | -122.38565 | 20 ft | 2 kts | 47° |
| 2026-04-25 07:24 | 37.61315 | -122.38579 | 20 ft | 2 kts | 60° |
| 2026-04-25 07:24 | 37.61310 | -122.38596 | 20 ft | 2 kts | 68° |
| 2026-04-25 07:25 | 37.61304 | -122.38614 | 20 ft | 2 kts | 68° |
| 2026-04-25 07:25 | 37.61298 | -122.38631 | 20 ft | 2 kts | 67° |
| 2026-04-25 07:25 | 37.61292 | -122.38649 | 20 ft | 2 kts | 68° |
| 2026-04-25 07:25 | 37.61287 | -122.38666 | 20 ft | 2 kts | 68° |
| 2026-04-25 07:26 | 37.61282 | -122.38684 | 20 ft | 2 kts | 93° |
| 2026-04-25 07:26 | 37.61286 | -122.38702 | 20 ft | 2 kts | 118° |
| 2026-04-25 07:26 | 37.61288 | -122.38706 | 20 ft | 1 kts | 115° |
| 2026-04-25 07:27 | 37.61288 | -122.38708 | 20 ft | 0 kts | 114° |
| 2026-04-25 07:28 | 37.61292 | -122.38715 | 20 ft | 0 kts | 161° |
| 2026-04-25 07:28 | 37.61298 | -122.38715 | 20 ft | 0 kts | 203° |
| 2026-04-25 07:28 | 37.61292 | -122.38717 | 20 ft | 0 kts | 204° |
| 2026-04-25 07:28 | 37.61291 | -122.38717 | 20 ft | 0 kts | 205° |
| 2026-04-25 07:31 | 37.61285 | -122.38721 | 20 ft | 4 kts | 208° |
| 2026-04-25 07:31 | 37.61249 | -122.38745 | 20 ft | 4 kts | 210° |
| 2026-04-25 07:32 | 37.61227 | -122.38760 | 20 ft | 4 kts | 212° |
| 2026-04-25 07:32 | 37.61194 | -122.38786 | 20 ft | 6 kts | 205° |
| 2026-04-25 07:32 | 37.61142 | -122.38818 | 20 ft | 9 kts | 210° |
| 2026-04-25 07:32 | 37.61097 | -122.38852 | 20 ft | 5 kts | 208° |
| 2026-04-25 07:33 | 37.61068 | -122.38868 | 20 ft | 3 kts | 200° |
| 2026-04-25 07:33 | 37.61036 | -122.38867 | 20 ft | 7 kts | 162° |
| 2026-04-25 07:33 | 37.60983 | -122.38790 | 20 ft | 15 kts | 119° |
| 2026-04-25 07:33 | 37.60929 | -122.38662 | 20 ft | 17 kts | 117° |
| 2026-04-25 07:34 | 37.60878 | -122.38518 | 20 ft | 18 kts | 97° |
| 2026-04-25 07:34 | 37.60911 | -122.38370 | 20 ft | 18 kts | 31° |
| 2026-04-25 07:34 | 37.61021 | -122.38299 | 20 ft | 16 kts | 28° |
| 2026-04-25 07:34 | 37.61115 | -122.38235 | 20 ft | 14 kts | 30° |
| 2026-04-25 07:35 | 37.61199 | -122.38177 | 20 ft | 13 kts | 29° |
| 2026-04-25 07:35 | 37.61277 | -122.38126 | 20 ft | 12 kts | 26° |
| 2026-04-25 07:35 | 37.61350 | -122.38081 | 20 ft | 11 kts | 26° |
| 2026-04-25 07:35 | 37.61417 | -122.38037 | 20 ft | 10 kts | 29° |
| 2026-04-25 07:36 | 37.61483 | -122.37993 | 20 ft | 11 kts | 25° |
| 2026-04-25 07:36 | 37.61559 | -122.37942 | 20 ft | 12 kts | 24° |
| 2026-04-25 07:36 | 37.61630 | -122.37892 | 20 ft | 11 kts | 32° |
| 2026-04-25 07:36 | 37.61668 | -122.37811 | 20 ft | 12 kts | 93° |
| 2026-04-25 07:37 | 37.61659 | -122.37696 | 20 ft | 13 kts | 97° |
| 2026-04-25 07:37 | 37.61646 | -122.37569 | 20 ft | 15 kts | 98° |
| 2026-04-25 07:37 | 37.61631 | -122.37432 | 20 ft | 16 kts | 98° |
| 2026-04-25 07:37 | 37.61613 | -122.37283 | 20 ft | 17 kts | 98° |
| 2026-04-25 07:38 | 37.61565 | -122.37144 | 20 ft | 17 kts | 118° |
| 2026-04-25 07:38 | 37.61504 | -122.36998 | 20 ft | 19 kts | 117° |
| 2026-04-25 07:38 | 37.61418 | -122.36858 | 20 ft | 20 kts | 136° |
| 2026-04-25 07:38 | 37.61337 | -122.36709 | 20 ft | 21 kts | 122° |
| 2026-04-25 07:39 | 37.61260 | -122.36537 | 20 ft | 22 kts | 117° |
| 2026-04-25 07:39 | 37.61185 | -122.36352 | 20 ft | 23 kts | 117° |
| 2026-04-25 07:39 | 37.61107 | -122.36166 | 20 ft | 17 kts | 117° |
| 2026-04-25 07:39 | 37.61118 | -122.36092 | 20 ft | 10 kts | 23° |
| 2026-04-25 07:40 | 37.61180 | -122.36057 | 20 ft | 9 kts | 31° |
| 2026-04-25 07:40 | 37.61239 | -122.36031 | 20 ft | 8 kts | 348° |
| 2026-04-25 07:40 | 37.61277 | -122.36089 | 20 ft | 11 kts | 297° |
| 2026-04-25 07:40 | 37.61406 | -122.36396 | 20 ft | 72 kts | 298° |
| 2026-04-25 07:41 | 37.61733 | -122.37182 | 29 ft | 124 kts | 295° |
| 2026-04-25 07:41 | 37.62183 | -122.38163 | 420 ft | 131 kts | 296° |
| 2026-04-25 07:41 | 37.62598 | -122.39198 | 1033 ft | 137 kts | 293° |
| 2026-04-25 07:41 | 37.63028 | -122.40256 | 1667 ft | 141 kts | 296° |
| 2026-04-25 07:42 | 37.63536 | -122.41439 | 1984 ft | 170 kts | 298° |
| 2026-04-25 07:42 | 37.64165 | -122.42882 | 2248 ft | 205 kts | 298° |
| 2026-04-25 07:42 | 37.64862 | -122.44558 | 2776 ft | 225 kts | 287° |
| 2026-04-25 07:42 | 37.64820 | -122.46519 | 3429 ft | 237 kts | 246° |
| 2026-04-25 07:43 | 37.63748 | -122.48109 | 3947 ft | 253 kts | 208° |
| 2026-04-25 07:43 | 37.62014 | -122.48595 | 4566 ft | 264 kts | 175° |
| 2026-04-25 07:43 | 37.60184 | -122.48268 | 5396 ft | 269 kts | 171° |
| 2026-04-25 07:43 | 37.58341 | -122.48016 | 6292 ft | 270 kts | 174° |
| 2026-04-25 07:44 | 37.56473 | -122.47850 | 7178 ft | 271 kts | 176° |
| 2026-04-25 07:44 | 37.54573 | -122.47727 | 7924 ft | 276 kts | 177° |
| 2026-04-25 07:44 | 37.52660 | -122.47628 | 8641 ft | 281 kts | 178° |
| 2026-04-25 07:44 | 37.50717 | -122.47401 | 9373 ft | 284 kts | 167° |
| 2026-04-25 07:45 | 37.48845 | -122.46574 | 10041 ft | 289 kts | 153° |
| 2026-04-25 07:45 | 37.47167 | -122.45161 | 10701 ft | 294 kts | 138° |
| 2026-04-25 07:45 | 37.45749 | -122.43248 | 11241 ft | 303 kts | 130° |
| 2026-04-25 07:45 | 37.44327 | -122.41209 | 11730 ft | 314 kts | 131° |
| 2026-04-25 07:46 | 37.42844 | -122.39145 | 12210 ft | 324 kts | 131° |
| 2026-04-25 07:46 | 37.41314 | -122.37045 | 12746 ft | 331 kts | 131° |
| 2026-04-25 07:46 | 37.39758 | -122.34921 | 13374 ft | 335 kts | 131° |
| 2026-04-25 07:46 | 37.38171 | -122.32762 | 14033 ft | 337 kts | 131° |
| 2026-04-25 07:47 | 37.36581 | -122.30602 | 14658 ft | 340 kts | 132° |
| 2026-04-25 07:47 | 37.34965 | -122.28408 | 15232 ft | 345 kts | 132° |
| 2026-04-25 07:47 | 37.33330 | -122.26192 | 15783 ft | 349 kts | 132° |
| 2026-04-25 07:47 | 37.31669 | -122.23940 | 16348 ft | 353 kts | 133° |
| 2026-04-25 07:48 | 37.30008 | -122.21691 | 16886 ft | 357 kts | 133° |
| 2026-04-25 07:48 | 37.28308 | -122.19392 | 17419 ft | 361 kts | 133° |
| 2026-04-25 07:48 | 37.26593 | -122.17072 | 17963 ft | 364 kts | 134° |
| 2026-04-25 07:48 | 37.24863 | -122.14735 | 18512 ft | 366 kts | 134° |
| 2026-04-25 07:49 | 37.23141 | -122.12412 | 19067 ft | 369 kts | 134° |
| 2026-04-25 07:49 | 37.21380 | -122.10036 | 19612 ft | 371 kts | 134° |
| 2026-04-25 07:49 | 37.19641 | -122.07693 | 20150 ft | 373 kts | 134° |
| 2026-04-25 07:49 | 37.17865 | -122.05300 | 20679 ft | 375 kts | 134° |
| 2026-04-25 07:50 | 37.16077 | -122.02892 | 21178 ft | 378 kts | 134° |
| 2026-04-25 07:50 | 37.14292 | -122.00491 | 21670 ft | 380 kts | 134° |
| 2026-04-25 07:50 | 37.12470 | -121.98042 | 22159 ft | 382 kts | 134° |
| 2026-04-25 07:50 | 37.10643 | -121.95589 | 22622 ft | 385 kts | 134° |
| 2026-04-25 07:51 | 37.08814 | -121.93134 | 23082 ft | 387 kts | 134° |
| 2026-04-25 07:51 | 37.06973 | -121.90665 | 23544 ft | 390 kts | 134° |
| 2026-04-25 07:51 | 37.05122 | -121.88186 | 23986 ft | 392 kts | 134° |
| 2026-04-25 07:51 | 37.03243 | -121.85670 | 24417 ft | 395 kts | 134° |
| 2026-04-25 07:52 | 37.01353 | -121.83141 | 24819 ft | 398 kts | 134° |
| 2026-04-25 07:52 | 36.99467 | -121.80619 | 25224 ft | 401 kts | 134° |
| 2026-04-25 07:52 | 36.97539 | -121.78043 | 25627 ft | 404 kts | 134° |
| 2026-04-25 07:52 | 36.95595 | -121.75448 | 26004 ft | 407 kts | 134° |
| 2026-04-25 07:53 | 36.93667 | -121.72877 | 26386 ft | 410 kts | 134° |
| 2026-04-25 07:53 | 36.91695 | -121.70249 | 26770 ft | 413 kts | 135° |
| 2026-04-25 07:53 | 36.89794 | -121.67718 | 27153 ft | 415 kts | 135° |
| 2026-04-25 07:53 | 36.87744 | -121.64990 | 27521 ft | 417 kts | 135° |
| 2026-04-25 07:54 | 36.85761 | -121.62354 | 27868 ft | 420 kts | 135° |
| 2026-04-25 07:54 | 36.83760 | -121.59697 | 28234 ft | 423 kts | 135° |
| 2026-04-25 07:54 | 36.81710 | -121.56976 | 28583 ft | 425 kts | 135° |
| 2026-04-25 07:54 | 36.79688 | -121.54295 | 28875 ft | 429 kts | 136° |
| 2026-04-25 07:55 | 36.77650 | -121.51595 | 29157 ft | 432 kts | 136° |
| 2026-04-25 07:55 | 36.75547 | -121.48811 | 29536 ft | 434 kts | 136° |
| 2026-04-25 07:55 | 36.73477 | -121.46072 | 29850 ft | 436 kts | 136° |
| 2026-04-25 07:55 | 36.71405 | -121.43334 | 30155 ft | 439 kts | 136° |
| 2026-04-25 07:56 | 36.69273 | -121.40520 | 30435 ft | 441 kts | 136° |
| 2026-04-25 07:56 | 36.67174 | -121.37749 | 30669 ft | 445 kts | 136° |
| 2026-04-25 07:56 | 36.65042 | -121.34940 | 30910 ft | 446 kts | 137° |
| 2026-04-25 07:56 | 36.62932 | -121.32160 | 30956 ft | 446 kts | 137° |
| 2026-04-25 07:57 | 36.58594 | -121.26454 | 30979 ft | 461 kts | 138° |
| 2026-04-25 07:57 | 36.54125 | -121.20588 | 30980 ft | 476 kts | 137° |
| 2026-04-25 07:58 | 36.49501 | -121.14526 | 30966 ft | 482 kts | 137° |
| 2026-04-25 07:58 | 36.44880 | -121.08480 | 30980 ft | 482 kts | 138° |
| 2026-04-25 07:59 | 36.40419 | -121.02290 | 30969 ft | 485 kts | 135° |
| 2026-04-25 07:59 | 36.36006 | -120.95928 | 30957 ft | 485 kts | 135° |
| 2026-04-25 08:00 | 36.31564 | -120.89553 | 30965 ft | 489 kts | 135° |
| 2026-04-25 08:00 | 36.27111 | -120.83173 | 30955 ft | 489 kts | 136° |
| 2026-04-25 08:01 | 36.22647 | -120.76789 | 30971 ft | 493 kts | 136° |
| 2026-04-25 08:01 | 36.18140 | -120.70358 | 30976 ft | 494 kts | 136° |
| 2026-04-25 08:02 | 36.13643 | -120.63951 | 30972 ft | 494 kts | 136° |
| 2026-04-25 08:02 | 36.09143 | -120.57555 | 30976 ft | 497 kts | 136° |
| 2026-04-25 08:03 | 36.04598 | -120.51105 | 30987 ft | 498 kts | 136° |
| 2026-04-25 08:03 | 36.00053 | -120.44667 | 30982 ft | 499 kts | 137° |
| 2026-04-25 08:04 | 35.95488 | -120.38214 | 30987 ft | 499 kts | 137° |
| 2026-04-25 08:04 | 35.90908 | -120.31752 | 30970 ft | 499 kts | 137° |
| 2026-04-25 08:05 | 35.86181 | -120.25812 | 30974 ft | 487 kts | 149° |
| 2026-04-25 08:05 | 35.80619 | -120.21346 | 30974 ft | 481 kts | 156° |
| 2026-04-25 08:06 | 35.74907 | -120.17033 | 30971 ft | 481 kts | 156° |
| 2026-04-25 08:06 | 35.69201 | -120.12737 | 30970 ft | 480 kts | 156° |
| 2026-04-25 08:07 | 35.63488 | -120.08431 | 30970 ft | 480 kts | 157° |
| 2026-04-25 08:07 | 35.57795 | -120.04135 | 30974 ft | 480 kts | 156° |
| 2026-04-25 08:08 | 35.52088 | -119.99837 | 30978 ft | 481 kts | 157° |
| 2026-04-25 08:08 | 35.46424 | -119.95577 | 30980 ft | 481 kts | 157° |
| 2026-04-25 08:09 | 35.40678 | -119.91263 | 30984 ft | 481 kts | 157° |
| 2026-04-25 08:09 | 35.34966 | -119.86982 | 30986 ft | 479 kts | 158° |
| 2026-04-25 08:10 | 35.29291 | -119.82724 | 30982 ft | 481 kts | 156° |
| 2026-04-25 08:10 | 35.23894 | -119.77766 | 30993 ft | 488 kts | 151° |
| 2026-04-25 08:11 | 35.18515 | -119.72732 | 30987 ft | 479 kts | 152° |
| 2026-04-25 08:11 | 35.13287 | -119.67857 | 30994 ft | 472 kts | 152° |
| 2026-04-25 08:12 | 35.08061 | -119.62991 | 30446 ft | 475 kts | 152° |
| 2026-04-25 08:12 | 35.05431 | -119.60543 | 29941 ft | 470 kts | 152° |
| 2026-04-25 08:12 | 35.02850 | -119.58143 | 29423 ft | 463 kts | 152° |
| 2026-04-25 08:13 | 35.00322 | -119.55796 | 28917 ft | 460 kts | 152° |
| 2026-04-25 08:13 | 34.97776 | -119.53436 | 28415 ft | 459 kts | 152° |
| 2026-04-25 08:13 | 34.95229 | -119.51072 | 27904 ft | 453 kts | 152° |
| 2026-04-25 08:14 | 34.90209 | -119.46455 | 26973 ft | 446 kts | 153° |
| 2026-04-25 08:14 | 34.87735 | -119.44244 | 26480 ft | 444 kts | 152° |
| 2026-04-25 08:14 | 34.85274 | -119.42041 | 26006 ft | 441 kts | 152° |
| 2026-04-25 08:14 | 34.82782 | -119.39811 | 25516 ft | 438 kts | 152° |
| 2026-04-25 08:15 | 34.80323 | -119.37613 | 25035 ft | 435 kts | 152° |
| 2026-04-25 08:15 | 34.77885 | -119.35435 | 24548 ft | 430 kts | 152° |
| 2026-04-25 08:15 | 34.75457 | -119.33266 | 24069 ft | 426 kts | 152° |
| 2026-04-25 08:15 | 34.73032 | -119.31136 | 23628 ft | 426 kts | 153° |
| 2026-04-25 08:16 | 34.70604 | -119.29014 | 23141 ft | 425 kts | 153° |
| 2026-04-25 08:16 | 34.68229 | -119.26938 | 22685 ft | 421 kts | 152° |
| 2026-04-25 08:16 | 34.65851 | -119.24860 | 22216 ft | 416 kts | 152° |
| 2026-04-25 08:16 | 34.63504 | -119.22827 | 21768 ft | 408 kts | 153° |
| 2026-04-25 08:17 | 34.61186 | -119.20828 | 21319 ft | 407 kts | 152° |
| 2026-04-25 08:17 | 34.58877 | -119.18838 | 20871 ft | 404 kts | 152° |
| 2026-04-25 08:17 | 34.56617 | -119.16889 | 20440 ft | 398 kts | 152° |
| 2026-04-25 08:17 | 34.54371 | -119.14905 | 20078 ft | 398 kts | 151° |
| 2026-04-25 08:18 | 34.52142 | -119.12932 | 19636 ft | 395 kts | 150° |
| 2026-04-25 08:18 | 34.49915 | -119.10960 | 19201 ft | 391 kts | 150° |
| 2026-04-25 08:18 | 34.47700 | -119.09001 | 18749 ft | 386 kts | 150° |
| 2026-04-25 08:18 | 34.45536 | -119.07089 | 18334 ft | 382 kts | 150° |
| 2026-04-25 08:19 | 34.43406 | -119.05221 | 17962 ft | 380 kts | 150° |
| 2026-04-25 08:19 | 34.41238 | -119.03341 | 17538 ft | 377 kts | 150° |
| 2026-04-25 08:19 | 34.39126 | -119.01511 | 17127 ft | 373 kts | 150° |
| 2026-04-25 08:19 | 34.37015 | -118.99683 | 16708 ft | 371 kts | 150° |
| 2026-04-25 08:20 | 34.34892 | -118.97846 | 16288 ft | 369 kts | 149° |
| 2026-04-25 08:20 | 34.32819 | -118.95989 | 15911 ft | 366 kts | 148° |
| 2026-04-25 08:20 | 34.30770 | -118.94129 | 15503 ft | 364 kts | 148° |
| 2026-04-25 08:20 | 34.28760 | -118.92306 | 15098 ft | 359 kts | 148° |
| 2026-04-25 08:21 | 34.26754 | -118.90488 | 14693 ft | 356 kts | 147° |
| 2026-04-25 08:21 | 34.24799 | -118.88705 | 14305 ft | 348 kts | 147° |
| 2026-04-25 08:21 | 34.22921 | -118.86977 | 13848 ft | 329 kts | 147° |
| 2026-04-25 08:21 | 34.21159 | -118.85358 | 13543 ft | 309 kts | 147° |
| 2026-04-25 08:22 | 34.19455 | -118.83796 | 13237 ft | 309 kts | 147° |
| 2026-04-25 08:22 | 34.17732 | -118.82217 | 12902 ft | 311 kts | 147° |
| 2026-04-25 08:22 | 34.16027 | -118.80586 | 12676 ft | 315 kts | 142° |
| 2026-04-25 08:22 | 34.14411 | -118.78820 | 12311 ft | 308 kts | 141° |
| 2026-04-25 08:23 | 34.12851 | -118.77117 | 11966 ft | 299 kts | 141° |
| 2026-04-25 08:23 | 34.11316 | -118.75445 | 11638 ft | 293 kts | 141° |
| 2026-04-25 08:23 | 34.09790 | -118.73786 | 11321 ft | 292 kts | 141° |
| 2026-04-25 08:23 | 34.08297 | -118.72166 | 11007 ft | 293 kts | 141° |
| 2026-04-25 08:24 | 34.06778 | -118.70515 | 10683 ft | 293 kts | 141° |
| 2026-04-25 08:24 | 34.05257 | -118.68865 | 10374 ft | 292 kts | 141° |
| 2026-04-25 08:24 | 34.03767 | -118.67198 | 10052 ft | 293 kts | 131° |
| 2026-04-25 08:24 | 34.02905 | -118.65015 | 9785 ft | 295 kts | 101° |
| 2026-04-25 08:25 | 34.02625 | -118.62573 | 9462 ft | 293 kts | 97° |
| 2026-04-25 08:25 | 34.02388 | -118.60174 | 9107 ft | 287 kts | 97° |
| 2026-04-25 08:25 | 34.02167 | -118.57884 | 8819 ft | 263 kts | 97° |
| 2026-04-25 08:25 | 34.01967 | -118.55784 | 8512 ft | 244 kts | 96° |
| 2026-04-25 08:26 | 34.01783 | -118.53831 | 8301 ft | 225 kts | 96° |
| 2026-04-25 08:26 | 34.01611 | -118.52010 | 8144 ft | 211 kts | 96° |
| 2026-04-25 08:26 | 34.01447 | -118.50274 | 7926 ft | 204 kts | 96° |
| 2026-04-25 08:26 | 34.01291 | -118.48618 | 7679 ft | 198 kts | 96° |
| 2026-04-25 08:27 | 34.01137 | -118.46993 | 7451 ft | 191 kts | 96° |
| 2026-04-25 08:27 | 34.01091 | -118.45421 | 7224 ft | 187 kts | 79° |
| 2026-04-25 08:27 | 34.01342 | -118.43888 | 7071 ft | 186 kts | 77° |
| 2026-04-25 08:27 | 34.01603 | -118.42359 | 6880 ft | 187 kts | 77° |
| 2026-04-25 08:28 | 34.01867 | -118.40811 | 6667 ft | 186 kts | 77° |
| 2026-04-25 08:28 | 34.02128 | -118.39294 | 6461 ft | 185 kts | 77° |
| 2026-04-25 08:28 | 34.02387 | -118.37782 | 6255 ft | 185 kts | 78° |
| 2026-04-25 08:28 | 34.02648 | -118.36257 | 6051 ft | 183 kts | 78° |
| 2026-04-25 08:29 | 34.02830 | -118.34756 | 5946 ft | 172 kts | 83° |
| 2026-04-25 08:29 | 34.02974 | -118.33341 | 5681 ft | 171 kts | 83° |
| 2026-04-25 08:29 | 34.03115 | -118.31954 | 5430 ft | 167 kts | 83° |
| 2026-04-25 08:29 | 34.03256 | -118.30568 | 5210 ft | 164 kts | 83° |
| 2026-04-25 08:30 | 34.03397 | -118.29186 | 5000 ft | 164 kts | 83° |
| 2026-04-25 08:30 | 34.03534 | -118.27837 | 4796 ft | 163 kts | 84° |
| 2026-04-25 08:30 | 34.03582 | -118.26485 | 4564 ft | 161 kts | 105° |
| 2026-04-25 08:30 | 34.03033 | -118.25333 | 4375 ft | 159 kts | 128° |
| 2026-04-25 08:31 | 34.02355 | -118.24271 | 4150 ft | 158 kts | 128° |
| 2026-04-25 08:31 | 34.01678 | -118.23227 | 3917 ft | 157 kts | 128° |
| 2026-04-25 08:31 | 34.00842 | -118.22405 | 3663 ft | 157 kts | 163° |
| 2026-04-25 08:31 | 33.99784 | -118.22509 | 3430 ft | 161 kts | 206° |
| 2026-04-25 08:32 | 33.98857 | -118.23279 | 3168 ft | 161 kts | 215° |
| 2026-04-25 08:32 | 33.97977 | -118.24079 | 2887 ft | 157 kts | 216° |
| 2026-04-25 08:32 | 33.97141 | -118.24863 | 2632 ft | 149 kts | 221° |
| 2026-04-25 08:32 | 33.96693 | -118.25945 | 2407 ft | 145 kts | 259° |
| 2026-04-25 08:33 | 33.96561 | -118.27132 | 2240 ft | 141 kts | 261° |
| 2026-04-25 08:33 | 33.96436 | -118.28294 | 2207 ft | 141 kts | 261° |
| 2026-04-25 08:33 | 33.96310 | -118.29466 | 2175 ft | 143 kts | 261° |
| 2026-04-25 08:33 | 33.96172 | -118.30669 | 1947 ft | 146 kts | 261° |
| 2026-04-25 08:34 | 33.96041 | -118.31855 | 1735 ft | 142 kts | 261° |
| 2026-04-25 08:34 | 33.95908 | -118.33060 | 1442 ft | 144 kts | 262° |
| 2026-04-25 08:34 | 33.95816 | -118.34249 | 1156 ft | 140 kts | 262° |
| 2026-04-25 08:34 | 33.95708 | -118.35408 | 934 ft | 138 kts | 260° |
| 2026-04-25 08:35 | 33.95573 | -118.36546 | 720 ft | 138 kts | 258° |
| 2026-04-25 08:35 | 33.95455 | -118.37701 | 537 ft | 137 kts | 262° |
| 2026-04-25 08:35 | 33.95346 | -118.38838 | 366 ft | 138 kts | 261° |
| 2026-04-25 08:35 | 33.95235 | -118.39963 | 201 ft | 132 kts | 261° |
| 2026-04-25 08:36 | 33.95126 | -118.40999 | 125 ft | 109 kts | 264° |
| 2026-04-25 08:36 | 33.95057 | -118.41682 | 125 ft | 56 kts | 263° |
| 2026-04-25 08:36 | 33.95031 | -118.41954 | 125 ft | 12 kts | 261° |
| 2026-04-25 08:36 | 33.95003 | -118.42063 | 125 ft | 14 kts | 254° |
| 2026-04-25 08:37 | 33.94953 | -118.42177 | 125 ft | 16 kts | 234° |
| 2026-04-25 08:37 | 33.94866 | -118.42281 | 125 ft | 18 kts | 204° |
| 2026-04-25 08:37 | 33.94736 | -118.42280 | 125 ft | 19 kts | 171° |
| 2026-04-25 08:37 | 33.94609 | -118.42222 | 125 ft | 20 kts | 106° |
| 2026-04-25 08:38 | 33.94623 | -118.42044 | 125 ft | 22 kts | 84° |
| 2026-04-25 08:38 | 33.94628 | -118.41850 | 125 ft | 23 kts | 112° |
| 2026-04-25 08:38 | 33.94485 | -118.41791 | 125 ft | 23 kts | 172° |
| 2026-04-25 08:38 | 33.94321 | -118.41774 | 125 ft | 24 kts | 173° |
| 2026-04-25 08:39 | 33.94152 | -118.41747 | 125 ft | 24 kts | 171° |
| 2026-04-25 08:39 | 33.93983 | -118.41721 | 125 ft | 24 kts | 171° |
| 2026-04-25 08:39 | 33.93809 | -118.41695 | 125 ft | 24 kts | 173° |
| 2026-04-25 08:39 | 33.93717 | -118.41581 | 124 ft | 22 kts | 84° |
| 2026-04-25 08:40 | 33.93735 | -118.41393 | 125 ft | 23 kts | 83° |
| 2026-04-25 08:40 | 33.93756 | -118.41200 | 125 ft | 23 kts | 82° |
| 2026-04-25 08:40 | 33.93775 | -118.41001 | 125 ft | 24 kts | 83° |
| 2026-04-25 08:40 | 33.93797 | -118.40800 | 125 ft | 24 kts | 85° |
| 2026-04-25 08:41 | 33.93816 | -118.40593 | 124 ft | 22 kts | 83° |
| 2026-04-25 08:41 | 33.93863 | -118.40530 | 123 ft | 11 kts | 358° |
| 2026-04-25 08:41 | 33.93946 | -118.40539 | 123 ft | 12 kts | 355° |
| 2026-04-25 08:41 | 33.94035 | -118.40552 | 123 ft | 12 kts | 354° |
| 2026-04-25 08:42 | 33.94083 | -118.40566 | 123 ft | 2 kts | 306° |
| 2026-04-25 08:42 | 33.94082 | -118.40586 | 123 ft | 2 kts | 253° |
| 2026-04-25 08:42 | 33.94075 | -118.40610 | 124 ft | 2 kts | 250° |
| 2026-04-25 08:42 | 33.94075 | -118.40611 | 124 ft | 0 kts | 250° |